Hobbema, Canada
Current Conditions -  °F | °C
As of 4:00 AM on Friday 24 Oct 2014 (Local Time) from CYEG Reporting Station
Broken Clouds Broken Clouds  
Wind Chill: 36°   Ceiling: 8000
Heat Index: 43°   Visibility: 15mi
Dew Point: 30°   Wind: 14mph
Humidity: 61%   Direction: 270°W
Pressure: 29.71"   Gusts: 22mph
Location:  52.83°N, 113.45°W
Report Text: CYEG 241000Z 27012G19KT 15SM SCT065 BKN080 06/M01 A2971 RMK SC3AC2 SLP072
Loading
Personal Weather Stations






























Interactive Weather Map New forecast layout! Learn more

10-Day Weather Forecast

Advertisements
Track Severe Weather on mobile